createdAt,value
2018-06-21T00:01:16.911Z,26.11
2018-06-21T00:03:45.031Z,26.08
2018-06-21T00:06:13.154Z,25.96
2018-06-21T00:08:41.399Z,25.46
2018-06-21T00:11:09.499Z,25.83
2018-06-21T00:13:37.647Z,25.81
2018-06-21T00:16:05.896Z,25.76
2018-06-21T00:18:34.090Z,25.66
2018-06-21T00:21:03.066Z,25.72
2018-06-21T00:23:31.230Z,25.82
2018-06-21T00:25:59.312Z,25.27
2018-06-21T00:28:27.415Z,25.50
2018-06-21T00:30:55.669Z,25.71
2018-06-21T00:33:23.775Z,25.80
2018-06-21T00:35:51.849Z,25.73
2018-06-21T00:38:19.977Z,25.71
2018-06-21T00:40:48.197Z,25.46
2018-06-21T00:43:16.256Z,25.67
2018-06-21T00:45:44.700Z,25.63
2018-06-21T00:48:12.732Z,25.21
2018-06-21T00:50:41.260Z,25.42
2018-06-21T00:53:09.595Z,24.95
2018-06-21T00:55:49.161Z,25.37
2018-06-21T00:58:17.216Z,25.54
2018-06-21T01:00:45.298Z,24.89
2018-06-21T01:03:13.415Z,25.04
2018-06-21T01:05:42.122Z,25.02
2018-06-21T01:08:10.191Z,24.46
2018-06-21T01:10:38.285Z,24.41
2018-06-21T01:13:06.313Z,24.11
2018-06-21T01:15:34.391Z,24.54
2018-06-21T01:18:03.074Z,24.24
2018-06-21T01:20:31.150Z,24.24
2018-06-21T01:22:59.369Z,23.52
2018-06-21T01:25:27.888Z,23.21
2018-06-21T01:27:56.100Z,23.47
2018-06-21T01:30:24.188Z,23.55
2018-06-21T01:32:52.454Z,23.93
2018-06-21T01:35:21.044Z,23.80
2018-06-21T01:37:49.163Z,23.23
2018-06-21T01:40:17.321Z,23.15
2018-06-21T01:42:45.976Z,23.04
2018-06-21T01:45:14.088Z,23.29
2018-06-21T01:47:43.104Z,23.22
2018-06-21T01:50:11.331Z,23.57
2018-06-21T01:52:39.451Z,23.30
2018-06-21T01:55:07.523Z,23.05
2018-06-21T01:57:36.169Z,23.18
2018-06-21T02:00:04.262Z,23.10
2018-06-21T02:02:33.799Z,23.13
2018-06-21T02:05:01.907Z,23.35
2018-06-21T02:07:29.947Z,23.13
2018-06-21T02:09:57.999Z,22.95
2018-06-21T02:12:26.114Z,22.87
2018-06-21T02:14:54.558Z,23.04
2018-06-21T02:17:22.693Z,22.92
2018-06-21T02:19:51.467Z,22.90
2018-06-21T02:22:19.575Z,23.13
2018-06-21T02:24:48.331Z,22.91
2018-06-21T02:27:16.433Z,22.84
2018-06-21T02:29:44.503Z,22.91
2018-06-21T02:32:12.842Z,22.82
2018-06-21T02:34:41.119Z,22.91
2018-06-21T02:37:09.242Z,22.77
2018-06-21T02:39:37.311Z,23.16
2018-06-21T02:42:06.567Z,22.88
2018-06-21T02:44:34.642Z,22.71
2018-06-21T02:47:03.517Z,22.47
2018-06-21T02:49:31.603Z,22.46
2018-06-21T02:51:59.759Z,22.38
2018-06-21T02:54:27.870Z,22.13
2018-06-21T02:56:55.959Z,22.28
2018-06-21T02:59:24.320Z,22.67
2018-06-21T03:01:52.411Z,22.17
2018-06-21T03:04:20.755Z,22.57
2018-06-21T03:06:48.840Z,22.26
2018-06-21T03:09:16.890Z,22.50
2018-06-21T03:11:45.021Z,22.42
2018-06-21T03:14:13.081Z,22.24
2018-06-21T03:16:41.134Z,22.23
2018-06-21T03:19:09.173Z,22.08
2018-06-21T03:21:37.280Z,22.38
2018-06-21T03:24:05.540Z,22.25
2018-06-21T03:26:33.619Z,22.09
2018-06-21T03:29:01.684Z,22.23
2018-06-21T03:31:29.731Z,22.26
2018-06-21T03:33:57.806Z,22.34
2018-06-21T03:36:25.887Z,22.64
2018-06-21T03:38:53.995Z,22.00
2018-06-21T03:41:22.181Z,22.16
2018-06-21T03:43:50.453Z,22.40
2018-06-21T03:46:18.579Z,22.31
2018-06-21T03:48:46.785Z,22.10
2018-06-21T03:51:14.946Z,22.26
2018-06-21T03:53:43.622Z,22.65
2018-06-21T03:56:11.718Z,22.63
2018-06-21T03:58:39.869Z,22.29
2018-06-21T04:01:08.166Z,22.65
2018-06-21T04:03:36.249Z,22.51
2018-06-21T04:06:04.479Z,22.53
2018-06-21T04:08:32.619Z,22.70
2018-06-21T04:11:00.764Z,22.43
2018-06-21T04:13:28.843Z,22.24
2018-06-21T04:15:56.982Z,22.21
2018-06-21T04:18:37.211Z,22.32
2018-06-21T04:21:06.812Z,22.38
2018-06-21T04:23:35.149Z,22.23
2018-06-21T04:26:04.104Z,22.31
2018-06-21T04:28:32.237Z,22.36
2018-06-21T04:31:00.794Z,22.27
2018-06-21T04:33:28.944Z,22.30
2018-06-21T04:35:57.049Z,22.25
2018-06-21T04:38:25.174Z,22.14
2018-06-21T04:40:53.458Z,22.28
2018-06-21T04:43:21.586Z,22.01
2018-06-21T04:45:50.262Z,22.26
2018-06-21T04:48:18.448Z,22.08
2018-06-21T04:50:46.617Z,22.08
2018-06-21T04:53:14.893Z,22.08
2018-06-21T04:55:43.719Z,22.11
2018-06-21T04:58:11.945Z,22.38
2018-06-21T05:00:40.015Z,21.97
2018-06-21T05:03:08.105Z,22.14
2018-06-21T05:05:36.162Z,22.15
2018-06-21T05:08:04.453Z,22.39
2018-06-21T05:10:32.530Z,22.40
2018-06-21T05:13:00.745Z,22.32
2018-06-21T05:15:29.106Z,22.33
2018-06-21T05:17:57.252Z,22.29
2018-06-21T05:20:25.430Z,22.14
2018-06-21T05:22:53.608Z,22.35
2018-06-21T05:25:21.876Z,22.19
2018-06-21T05:27:49.962Z,22.12
2018-06-21T05:30:18.044Z,22.34
2018-06-21T05:32:46.185Z,22.16
2018-06-21T05:35:15.106Z,22.49
2018-06-21T05:37:43.988Z,22.53
2018-06-21T05:40:33.419Z,22.21
2018-06-21T05:43:02.322Z,22.63
2018-06-21T05:45:30.422Z,22.58
2018-06-21T05:48:00.619Z,22.54
2018-06-21T05:50:29.804Z,22.58
2018-06-21T05:52:58.833Z,22.97
2018-06-21T05:55:27.153Z,22.81
2018-06-21T05:57:55.354Z,22.83
2018-06-21T06:00:23.614Z,23.05
2018-06-21T06:02:51.922Z,23.20
2018-06-21T06:05:20.510Z,23.27
2018-06-21T06:07:48.630Z,23.03
2018-06-21T06:10:16.807Z,23.11
2018-06-21T06:12:44.991Z,23.38
2018-06-21T06:15:13.193Z,23.23
2018-06-21T06:17:41.308Z,23.24
2018-06-21T06:20:09.413Z,23.10
2018-06-21T06:22:37.551Z,23.42
2018-06-21T06:25:05.645Z,23.51
2018-06-21T06:27:34.598Z,23.62
2018-06-21T06:30:02.694Z,23.45
2018-06-21T06:32:30.768Z,23.45
2018-06-21T06:34:58.875Z,23.49
2018-06-21T06:37:26.939Z,23.31
2018-06-21T06:39:55.298Z,23.38
2018-06-21T06:42:23.375Z,23.47
2018-06-21T06:44:51.521Z,23.74
2018-06-21T06:47:19.890Z,23.65
2018-06-21T06:49:48.048Z,23.54
2018-06-21T06:52:16.197Z,23.70
2018-06-21T06:54:44.344Z,23.79
2018-06-21T06:57:12.505Z,23.94
2018-06-21T06:59:40.591Z,23.93
2018-06-21T07:02:09.456Z,24.16
2018-06-21T07:04:37.722Z,23.89
2018-06-21T07:07:05.922Z,24.00
2018-06-21T07:09:34.630Z,24.10
2018-06-21T07:12:02.762Z,23.77
2018-06-21T07:14:30.945Z,24.03
2018-06-21T07:16:59.022Z,24.22
2018-06-21T07:19:27.134Z,23.99
2018-06-21T07:21:55.276Z,23.96
2018-06-21T07:24:23.604Z,23.90
2018-06-21T07:26:52.325Z,23.86
2018-06-21T07:29:20.397Z,24.20
2018-06-21T07:31:48.467Z,23.96
2018-06-21T07:34:16.766Z,23.88
2018-06-21T07:36:44.882Z,23.94
2018-06-21T07:39:13.007Z,24.06
2018-06-21T07:41:41.113Z,24.07
2018-06-21T07:44:09.446Z,24.10
2018-06-21T07:46:38.157Z,24.08
2018-06-21T07:49:06.386Z,24.19
2018-06-21T07:51:35.059Z,24.40
2018-06-21T07:54:03.190Z,24.15
2018-06-21T07:56:31.493Z,24.20
2018-06-21T07:58:59.761Z,24.03
2018-06-21T08:01:28.364Z,24.32
2018-06-21T08:03:56.540Z,24.45
2018-06-21T08:06:24.811Z,24.55
2018-06-21T08:08:53.074Z,24.50
2018-06-21T08:11:21.230Z,24.75
2018-06-21T08:13:49.493Z,24.81
2018-06-21T08:16:18.094Z,24.73
2018-06-21T08:18:46.712Z,24.73
2018-06-21T08:21:15.572Z,24.72
2018-06-21T08:23:43.688Z,24.81
2018-06-21T08:26:11.925Z,24.76
2018-06-21T08:28:40.030Z,25.07
2018-06-21T08:31:08.099Z,24.82
2018-06-21T08:33:36.250Z,24.97
2018-06-21T08:36:05.134Z,24.97
2018-06-21T08:38:33.210Z,25.12
2018-06-21T08:41:01.293Z,25.25
2018-06-21T08:43:29.404Z,24.94
2018-06-21T08:45:57.740Z,25.07
2018-06-21T08:48:40.574Z,25.23
2018-06-21T08:51:09.033Z,25.36
2018-06-21T08:53:37.126Z,25.55
2018-06-21T08:56:05.282Z,25.67
2018-06-21T08:58:33.743Z,25.51
2018-06-21T09:01:01.811Z,25.60
2018-06-21T09:03:30.003Z,25.64
2018-06-21T09:05:58.187Z,25.83
2018-06-21T09:08:26.455Z,26.13
2018-06-21T09:10:54.572Z,26.02
2018-06-21T09:13:23.007Z,26.09
2018-06-21T09:15:51.095Z,26.08
2018-06-21T09:18:19.160Z,25.93
2018-06-21T09:20:47.262Z,25.97
2018-06-21T09:23:15.314Z,25.86
2018-06-21T09:25:43.452Z,26.03
2018-06-21T09:28:11.502Z,26.01
2018-06-21T09:30:39.748Z,26.15
2018-06-21T09:33:07.900Z,25.89
2018-06-21T09:35:35.984Z,25.89
2018-06-21T09:38:09.617Z,26.15
2018-06-21T09:40:43.147Z,26.35
2018-06-21T09:43:16.532Z,25.89
2018-06-21T09:45:50.341Z,26.43
2018-06-21T09:48:30.211Z,26.45
2018-06-21T09:50:59.004Z,26.38
2018-06-21T09:53:27.894Z,26.07
2018-06-21T09:55:56.462Z,26.01
2018-06-21T09:58:24.598Z,25.88
2018-06-21T10:00:58.125Z,26.25
2018-06-21T10:03:26.495Z,26.12
2018-06-21T10:05:54.682Z,26.09
2018-06-21T10:08:22.997Z,26.17
2018-06-21T10:10:51.147Z,26.43
2018-06-21T10:13:19.247Z,27.01
2018-06-21T10:15:47.540Z,26.75
2018-06-21T10:18:15.619Z,26.79
2018-06-21T10:20:43.852Z,26.60
2018-06-21T10:23:12.140Z,26.50
2018-06-21T10:25:40.222Z,26.07
2018-06-21T10:28:08.358Z,25.89
2018-06-21T10:30:36.542Z,25.31
2018-06-21T10:33:05.619Z,24.79
2018-06-21T10:35:33.806Z,24.30
2018-06-21T10:38:01.921Z,23.97
2018-06-21T10:40:30.015Z,23.85
2018-06-21T10:42:58.237Z,23.74
2018-06-21T10:45:26.322Z,23.79
2018-06-21T10:47:54.424Z,23.71
2018-06-21T10:50:22.647Z,23.49
2018-06-21T10:52:50.748Z,23.53
2018-06-21T10:55:18.870Z,23.59
2018-06-21T10:57:48.382Z,23.57
2018-06-21T11:00:16.487Z,23.52
2018-06-21T11:02:44.612Z,22.96
2018-06-21T11:05:12.711Z,23.04
2018-06-21T11:07:40.790Z,22.89
2018-06-21T11:10:08.885Z,22.80
2018-06-21T11:12:37.042Z,23.06
2018-06-21T11:15:05.932Z,22.71
2018-06-21T11:17:34.111Z,22.50
2018-06-21T11:20:02.383Z,22.45
2018-06-21T11:22:30.495Z,22.47
2018-06-21T11:24:58.581Z,22.76
2018-06-21T11:27:26.715Z,23.05
2018-06-21T11:29:54.765Z,23.32
2018-06-21T11:32:22.830Z,23.70
2018-06-21T11:34:50.889Z,24.01
2018-06-21T11:37:18.955Z,24.00
2018-06-21T11:39:47.010Z,23.67
2018-06-21T11:42:15.086Z,23.30
2018-06-21T11:44:43.277Z,23.41
2018-06-21T11:47:11.429Z,23.67
2018-06-21T11:49:40.080Z,23.65
2018-06-21T11:52:08.235Z,24.28
2018-06-21T11:54:36.664Z,23.94
2018-06-21T11:57:05.883Z,24.02
2018-06-21T11:59:34.022Z,25.12
2018-06-21T12:02:02.137Z,27.54
2018-06-21T12:04:30.310Z,28.19
2018-06-21T12:06:58.616Z,29.90
2018-06-21T12:09:26.763Z,28.70
2018-06-21T12:11:54.872Z,28.44
2018-06-21T12:14:22.955Z,28.14
2018-06-21T12:16:51.003Z,27.19
2018-06-21T12:19:20.279Z,26.46
2018-06-21T12:21:48.406Z,25.96
2018-06-21T12:24:16.546Z,25.72
2018-06-21T12:26:44.714Z,25.56
2018-06-21T12:29:13.098Z,25.32
2018-06-21T12:31:41.234Z,26.14
2018-06-21T12:34:09.599Z,26.07
2018-06-21T12:36:37.668Z,27.66
2018-06-21T12:39:10.832Z,29.06
2018-06-21T12:41:41.455Z,28.78
2018-06-21T12:44:11.691Z,29.95
2018-06-21T12:46:40.578Z,28.75
2018-06-21T12:49:10.911Z,26.98
2018-06-21T12:51:39.291Z,29.01
2018-06-21T12:54:07.381Z,29.40
2018-06-21T12:56:35.995Z,30.45
2018-06-21T12:59:04.063Z,29.84
2018-06-21T13:01:32.133Z,29.15
2018-06-21T13:04:00.218Z,29.84
2018-06-21T13:06:28.371Z,30.07
2018-06-21T13:09:07.691Z,29.99
2018-06-21T13:12:45.387Z,29.34
2018-06-21T13:15:13.504Z,30.22
2018-06-21T13:17:41.611Z,29.24
2018-06-21T13:20:09.758Z,29.42
2018-06-21T13:22:38.124Z,31.46
2018-06-21T13:25:06.278Z,28.88
2018-06-21T13:27:34.387Z,29.12
2018-06-21T13:30:02.600Z,30.95
2018-06-21T13:32:30.779Z,31.80
2018-06-21T13:34:59.074Z,30.41
2018-06-21T13:37:27.547Z,28.51
2018-06-21T13:39:55.702Z,27.63
2018-06-21T13:42:23.790Z,27.73
2018-06-21T13:44:52.000Z,26.71
2018-06-21T13:47:20.119Z,26.50
2018-06-21T13:49:48.356Z,28.57
2018-06-21T13:52:16.454Z,28.59
2018-06-21T13:54:44.635Z,29.63
2018-06-21T13:57:12.817Z,30.36
2018-06-21T13:59:40.948Z,30.15
2018-06-21T14:02:09.122Z,30.07
2018-06-21T14:04:37.355Z,31.02
2018-06-21T14:07:06.373Z,30.84
2018-06-21T14:09:34.520Z,31.16
2018-06-21T14:12:02.677Z,30.49
2018-06-21T14:14:31.835Z,30.54
2018-06-21T14:17:00.052Z,30.80
2018-06-21T14:19:28.335Z,31.44
2018-06-21T14:21:56.618Z,32.92
2018-06-21T14:24:24.723Z,33.29
2018-06-21T14:26:52.899Z,32.65
2018-06-21T14:29:21.007Z,31.76
2018-06-21T14:31:49.164Z,29.54
2018-06-21T14:34:25.358Z,28.85
2018-06-21T14:37:07.575Z,29.19
2018-06-21T14:39:36.436Z,29.37
2018-06-21T14:42:04.526Z,28.31
2018-06-21T14:44:32.649Z,28.72
2018-06-21T14:47:00.784Z,27.90
2018-06-21T14:49:29.080Z,27.58
2018-06-21T14:51:57.358Z,26.96
2018-06-21T14:54:25.479Z,27.79
2018-06-21T14:56:53.821Z,29.75
2018-06-21T14:59:21.936Z,29.59
2018-06-21T15:01:50.111Z,30.48
2018-06-21T15:04:18.251Z,30.33
2018-06-21T15:06:47.103Z,30.39
2018-06-21T15:09:15.299Z,29.68
2018-06-21T15:11:43.610Z,32.03
2018-06-21T15:14:12.138Z,31.40
2018-06-21T15:16:41.022Z,31.56
2018-06-21T15:19:09.911Z,32.50
2018-06-21T15:21:37.979Z,30.68
2018-06-21T15:24:06.700Z,31.24
2018-06-21T15:26:49.315Z,31.29
2018-06-21T15:29:28.816Z,29.52
2018-06-21T15:31:58.035Z,30.31
2018-06-21T15:34:26.344Z,30.56
2018-06-21T15:36:54.450Z,31.57
2018-06-21T15:39:24.052Z,30.86
2018-06-21T15:41:52.334Z,30.62
2018-06-21T15:44:20.445Z,30.72
2018-06-21T15:46:48.955Z,32.07
2018-06-21T15:49:17.117Z,31.30
2018-06-21T15:51:45.274Z,31.06
2018-06-21T15:54:13.810Z,32.11
2018-06-21T15:56:41.862Z,31.41
2018-06-21T15:59:10.256Z,30.36
2018-06-21T16:01:38.453Z,29.62
2018-06-21T16:04:07.224Z,28.34
2018-06-21T16:06:35.340Z,28.80
2018-06-21T16:09:04.486Z,28.15
2018-06-21T16:11:32.795Z,28.22
2018-06-21T16:14:01.033Z,27.38
2018-06-21T16:16:29.163Z,26.25
2018-06-21T16:18:57.302Z,26.54
2018-06-21T16:21:25.437Z,26.12
2018-06-21T16:23:53.517Z,26.28
2018-06-21T16:26:21.974Z,24.96
2018-06-21T16:28:50.507Z,25.50
2018-06-21T16:31:18.789Z,25.38
2018-06-21T16:33:46.871Z,25.98
2018-06-21T16:36:15.089Z,25.80
2018-06-21T16:38:43.373Z,25.46
2018-06-21T16:41:11.428Z,25.45
2018-06-21T16:43:39.479Z,25.23
2018-06-21T16:46:07.590Z,24.38
2018-06-21T16:48:35.638Z,24.63
2018-06-21T16:51:03.844Z,25.30
2018-06-21T16:53:31.851Z,25.18
2018-06-21T16:55:59.919Z,24.69
2018-06-21T16:58:28.072Z,23.99
2018-06-21T17:00:57.361Z,24.23
2018-06-21T17:03:25.467Z,24.75
2018-06-21T17:05:53.616Z,24.45
2018-06-21T17:08:21.781Z,24.14
2018-06-21T17:10:50.062Z,24.92
2018-06-21T17:13:18.839Z,24.21
2018-06-21T17:15:46.993Z,24.07
2018-06-21T17:18:15.302Z,24.25
2018-06-21T17:20:43.633Z,24.51
2018-06-21T17:23:11.862Z,24.42
2018-06-21T17:25:40.235Z,24.41
2018-06-21T17:28:08.330Z,24.78
2018-06-21T17:30:37.276Z,23.91
2018-06-21T17:33:05.536Z,23.63
2018-06-21T17:35:33.659Z,23.47
2018-06-21T17:38:01.759Z,23.72
2018-06-21T17:40:29.980Z,24.02
2018-06-21T17:42:58.415Z,23.86
2018-06-21T17:45:26.742Z,23.25
2018-06-21T17:47:54.865Z,23.16
2018-06-21T17:50:32.229Z,22.91
2018-06-21T17:53:07.027Z,22.72
2018-06-21T17:55:35.590Z,22.93
2018-06-21T17:58:03.734Z,22.93
2018-06-21T18:00:31.936Z,22.95
2018-06-21T18:03:00.104Z,22.74
2018-06-21T18:05:28.198Z,22.90
2018-06-21T18:07:56.394Z,22.74
2018-06-21T18:10:24.460Z,22.39
2018-06-21T18:12:52.618Z,22.32
2018-06-21T18:15:20.760Z,21.85
2018-06-21T18:18:01.811Z,22.22
2018-06-21T18:20:56.487Z,22.08
2018-06-21T18:23:24.678Z,22.39
2018-06-21T18:25:52.751Z,21.85
2018-06-21T18:28:21.026Z,22.06
2018-06-21T18:30:49.154Z,22.45
2018-06-21T18:33:17.243Z,22.19
2018-06-21T18:35:45.319Z,21.99
2018-06-21T18:38:13.390Z,21.85
2018-06-21T18:40:41.511Z,22.16
2018-06-21T18:43:09.612Z,21.36
2018-06-21T18:45:39.296Z,21.80
2018-06-21T18:48:07.669Z,21.93
2018-06-21T18:50:35.729Z,21.62
2018-06-21T18:53:03.886Z,21.40
2018-06-21T18:55:32.002Z,21.62
2018-06-21T18:58:00.982Z,21.44
2018-06-21T19:00:29.056Z,21.03
2018-06-21T19:02:57.158Z,21.38
2018-06-21T19:05:25.311Z,21.16
2018-06-21T19:07:58.966Z,20.81
2018-06-21T19:10:32.403Z,20.88
2018-06-21T19:13:00.485Z,21.03
2018-06-21T19:15:28.707Z,20.65
2018-06-21T19:17:56.815Z,20.51
2018-06-21T19:20:24.950Z,20.36
2018-06-21T19:22:53.086Z,20.04
2018-06-21T19:25:21.179Z,20.06
2018-06-21T19:27:49.863Z,20.14
2018-06-21T19:30:18.147Z,19.96
2018-06-21T19:32:46.256Z,19.92
2018-06-21T19:35:14.602Z,19.58
2018-06-21T19:37:42.698Z,19.80
2018-06-21T19:40:10.831Z,19.97
2018-06-21T19:42:38.890Z,19.85
2018-06-21T19:45:07.921Z,19.53
2018-06-21T19:47:36.009Z,19.63
2018-06-21T19:50:04.168Z,19.58
2018-06-21T19:52:32.254Z,19.38
2018-06-21T19:55:00.328Z,19.58
2018-06-21T19:57:28.426Z,19.47
2018-06-21T19:59:56.689Z,19.54
2018-06-21T20:02:29.034Z,19.53
2018-06-21T20:04:57.156Z,19.55
2018-06-21T20:07:25.425Z,19.23
2018-06-21T20:09:53.493Z,19.31
2018-06-21T20:12:21.558Z,19.21
2018-06-21T20:14:49.879Z,19.52
2018-06-21T20:17:21.554Z,19.63
2018-06-21T20:19:54.984Z,19.03
2018-06-21T20:22:23.082Z,19.08
2018-06-21T20:24:52.524Z,19.48
2018-06-21T20:27:21.044Z,19.59
2018-06-21T20:29:49.806Z,20.21
2018-06-21T20:32:17.878Z,19.47
2018-06-21T20:34:46.472Z,20.02
2018-06-21T20:37:14.654Z,19.22
2018-06-21T20:39:43.375Z,18.89
2018-06-21T20:42:11.579Z,18.85
2018-06-21T20:44:39.749Z,18.86
2018-06-21T20:47:11.246Z,19.05
2018-06-21T20:49:39.373Z,18.83
2018-06-21T20:52:12.390Z,18.72
2018-06-21T20:54:40.511Z,18.60
2018-06-21T20:57:08.814Z,18.63
2018-06-21T20:59:37.063Z,18.29
2018-06-21T21:02:05.600Z,18.33
2018-06-21T21:04:44.197Z,18.51
2018-06-21T21:07:13.362Z,18.71
2018-06-21T21:09:41.678Z,18.52
2018-06-21T21:12:09.758Z,18.06
2018-06-21T21:14:38.263Z,18.43
2018-06-21T21:17:06.425Z,18.45
2018-06-21T21:19:34.505Z,18.45
2018-06-21T21:22:02.637Z,18.04
2018-06-21T21:24:30.735Z,18.16
2018-06-21T21:26:58.900Z,17.79
2018-06-21T21:29:27.046Z,18.07
2018-06-21T21:31:55.166Z,18.11
2018-06-21T21:34:23.267Z,18.12
2018-06-21T21:36:52.286Z,18.03
2018-06-21T21:39:20.507Z,17.80
2018-06-21T21:41:48.602Z,17.66
2018-06-21T21:44:16.694Z,17.93
2018-06-21T21:46:44.863Z,17.99
2018-06-21T21:49:13.024Z,18.01
2018-06-21T21:51:41.142Z,17.96
2018-06-21T21:54:09.458Z,18.20
2018-06-21T21:56:38.461Z,18.70
2018-06-21T21:59:06.597Z,18.71
2018-06-21T22:01:34.687Z,18.88
2018-06-21T22:04:02.750Z,18.85
2018-06-21T22:06:30.891Z,18.19
2018-06-21T22:08:59.015Z,17.43
2018-06-21T22:11:27.219Z,17.59
2018-06-21T22:14:00.547Z,17.46
2018-06-21T22:16:28.715Z,17.12
2018-06-21T22:18:56.908Z,17.27
2018-06-21T22:21:24.998Z,17.37
2018-06-21T22:23:53.104Z,17.42
2018-06-21T22:26:21.197Z,16.98
2018-06-21T22:28:49.759Z,17.28
2018-06-21T22:31:17.994Z,17.55
2018-06-21T22:33:46.444Z,16.91
2018-06-21T22:36:14.732Z,17.04
2018-06-21T22:38:42.850Z,17.12
2018-06-21T22:41:11.071Z,17.26
2018-06-21T22:43:39.602Z,17.39
2018-06-21T22:46:08.640Z,17.41
2018-06-21T22:48:37.074Z,16.97
2018-06-21T22:51:05.195Z,17.16
2018-06-21T22:53:34.677Z,16.73
2018-06-21T22:56:02.860Z,17.25
2018-06-21T22:58:31.100Z,17.09
2018-06-21T23:00:59.259Z,17.02
2018-06-21T23:03:28.880Z,17.13
2018-06-21T23:05:57.062Z,16.95
2018-06-21T23:08:25.230Z,16.93
2018-06-21T23:10:53.350Z,16.57
2018-06-21T23:13:21.569Z,16.60
2018-06-21T23:15:49.752Z,17.05
2018-06-21T23:18:29.762Z,16.63
2018-06-21T23:20:58.702Z,16.20
2018-06-21T23:23:26.830Z,16.60
2018-06-21T23:25:55.348Z,16.57
2018-06-21T23:28:24.007Z,16.43
2018-06-21T23:30:52.419Z,16.79
2018-06-21T23:33:21.042Z,16.55
2018-06-21T23:35:49.144Z,16.24
2018-06-21T23:38:17.255Z,16.43
2018-06-21T23:40:48.233Z,16.06
2018-06-21T23:43:16.324Z,16.33
2018-06-21T23:45:45.222Z,15.82
2018-06-21T23:48:13.699Z,15.81
2018-06-21T23:50:42.522Z,15.57
2018-06-21T23:53:10.654Z,15.23
2018-06-21T23:55:40.986Z,15.42
2018-06-21T23:58:11.340Z,15.52
